sensor_id;sensor_type;location;lat;lon;timestamp;P1;durP1;ratioP1;P2;durP2;ratioP2
44270;SDS011;29963;44.594;11.368;2023-02-27T00:02:21;3.88;;;2.53;;
44270;SDS011;29963;44.594;11.368;2023-02-27T00:04:47;13.10;;;2.90;;
44270;SDS011;29963;44.594;11.368;2023-02-27T00:07:14;6.50;;;2.50;;
44270;SDS011;29963;44.594;11.368;2023-02-27T00:09:40;4.35;;;2.50;;
44270;SDS011;29963;44.594;11.368;2023-02-27T00:12:06;6.75;;;3.05;;
44270;SDS011;29963;44.594;11.368;2023-02-27T00:14:33;2.95;;;1.92;;
44270;SDS011;29963;44.594;11.368;2023-02-27T00:16:58;4.88;;;2.78;;
44270;SDS011;29963;44.594;11.368;2023-02-27T00:19:24;13.63;;;3.55;;
44270;SDS011;29963;44.594;11.368;2023-02-27T00:21:50;3.45;;;2.35;;
44270;SDS011;29963;44.594;11.368;2023-02-27T00:24:16;4.95;;;2.30;;
44270;SDS011;29963;44.594;11.368;2023-02-27T00:26:41;4.13;;;2.03;;
44270;SDS011;29963;44.594;11.368;2023-02-27T00:29:10;7.65;;;2.42;;
44270;SDS011;29963;44.594;11.368;2023-02-27T00:31:35;6.57;;;2.72;;
44270;SDS011;29963;44.594;11.368;2023-02-27T00:34:01;8.65;;;2.47;;
44270;SDS011;29963;44.594;11.368;2023-02-27T00:36:28;5.90;;;2.55;;
44270;SDS011;29963;44.594;11.368;2023-02-27T00:38:53;9.10;;;3.65;;
44270;SDS011;29963;44.594;11.368;2023-02-27T00:41:19;8.23;;;3.13;;
44270;SDS011;29963;44.594;11.368;2023-02-27T00:43:44;8.02;;;2.33;;
44270;SDS011;29963;44.594;11.368;2023-02-27T00:46:10;8.45;;;2.67;;
44270;SDS011;29963;44.594;11.368;2023-02-27T00:48:36;9.85;;;2.85;;
44270;SDS011;29963;44.594;11.368;2023-02-27T00:51:01;5.07;;;2.33;;
44270;SDS011;29963;44.594;11.368;2023-02-27T00:53:27;12.55;;;2.40;;
44270;SDS011;29963;44.594;11.368;2023-02-27T00:55:56;8.93;;;3.30;;
44270;SDS011;29963;44.594;11.368;2023-02-27T00:58:21;7.45;;;2.60;;
44270;SDS011;29963;44.594;11.368;2023-02-27T01:00:47;7.25;;;2.47;;
44270;SDS011;29963;44.594;11.368;2023-02-27T01:03:12;6.40;;;2.65;;
44270;SDS011;29963;44.594;11.368;2023-02-27T01:05:38;9.70;;;2.58;;
44270;SDS011;29963;44.594;11.368;2023-02-27T01:08:04;6.03;;;2.72;;
44270;SDS011;29963;44.594;11.368;2023-02-27T01:10:29;11.82;;;2.85;;
44270;SDS011;29963;44.594;11.368;2023-02-27T01:12:55;4.70;;;2.38;;
44270;SDS011;29963;44.594;11.368;2023-02-27T01:15:21;9.32;;;2.78;;
44270;SDS011;29963;44.594;11.368;2023-02-27T01:17:46;7.18;;;2.83;;
44270;SDS011;29963;44.594;11.368;2023-02-27T01:20:13;5.25;;;2.45;;
44270;SDS011;29963;44.594;11.368;2023-02-27T01:22:39;7.32;;;2.90;;
44270;SDS011;29963;44.594;11.368;2023-02-27T01:25:06;4.00;;;3.08;;
44270;SDS011;29963;44.594;11.368;2023-02-27T01:27:32;6.65;;;2.83;;
44270;SDS011;29963;44.594;11.368;2023-02-27T01:29:58;3.97;;;2.47;;
44270;SDS011;29963;44.594;11.368;2023-02-27T01:32:23;10.55;;;2.60;;
44270;SDS011;29963;44.594;11.368;2023-02-27T01:34:49;3.33;;;2.45;;
44270;SDS011;29963;44.594;11.368;2023-02-27T01:37:14;7.88;;;2.35;;
44270;SDS011;29963;44.594;11.368;2023-02-27T01:39:40;6.57;;;2.72;;
44270;SDS011;29963;44.594;11.368;2023-02-27T01:42:12;10.35;;;2.58;;
44270;SDS011;29963;44.594;11.368;2023-02-27T01:47:41;6.63;;;3.00;;
44270;SDS011;29963;44.594;11.368;2023-02-27T01:50:10;9.10;;;2.72;;
44270;SDS011;29963;44.594;11.368;2023-02-27T01:52:37;6.93;;;2.20;;
44270;SDS011;29963;44.594;11.368;2023-02-27T01:55:05;6.80;;;2.53;;
44270;SDS011;29963;44.594;11.368;2023-02-27T01:57:36;7.88;;;2.97;;
44270;SDS011;29963;44.594;11.368;2023-02-27T02:00:03;5.70;;;2.47;;
44270;SDS011;29963;44.594;11.368;2023-02-27T02:02:33;7.05;;;2.35;;
44270;SDS011;29963;44.594;11.368;2023-02-27T02:05:03;7.55;;;2.67;;
44270;SDS011;29963;44.594;11.368;2023-02-27T02:07:31;9.05;;;2.97;;
44270;SDS011;29963;44.594;11.368;2023-02-27T02:09:58;7.40;;;2.95;;
44270;SDS011;29963;44.594;11.368;2023-02-27T02:12:28;5.55;;;2.63;;
44270;SDS011;29963;44.594;11.368;2023-02-27T02:14:55;4.00;;;2.17;;
44270;SDS011;29963;44.594;11.368;2023-02-27T02:24:03;4.18;;;2.40;;
44270;SDS011;29963;44.594;11.368;2023-02-27T02:37:26;6.45;;;2.30;;
44270;SDS011;29963;44.594;11.368;2023-02-27T02:48:11;7.47;;;2.83;;
44270;SDS011;29963;44.594;11.368;2023-02-27T02:50:49;6.15;;;2.05;;
44270;SDS011;29963;44.594;11.368;2023-02-27T02:56:38;6.95;;;3.42;;
44270;SDS011;29963;44.594;11.368;2023-02-27T02:59:13;9.70;;;2.50;;
44270;SDS011;29963;44.594;11.368;2023-02-27T03:07:05;5.25;;;2.42;;
44270;SDS011;29963;44.594;11.368;2023-02-27T03:09:47;9.23;;;2.33;;
44270;SDS011;29963;44.594;11.368;2023-02-27T03:12:33;5.95;;;2.40;;
44270;SDS011;29963;44.594;11.368;2023-02-27T03:15:22;8.32;;;2.75;;
44270;SDS011;29963;44.594;11.368;2023-02-27T03:18:00;7.32;;;2.70;;
44270;SDS011;29963;44.594;11.368;2023-02-27T03:20:44;6.22;;;3.25;;
44270;SDS011;29963;44.594;11.368;2023-02-27T03:23:17;5.47;;;3.03;;
44270;SDS011;29963;44.594;11.368;2023-02-27T03:25:47;6.13;;;3.25;;
44270;SDS011;29963;44.594;11.368;2023-02-27T03:28:16;9.50;;;2.45;;
44270;SDS011;29963;44.594;11.368;2023-02-27T03:30:49;10.05;;;3.33;;
44270;SDS011;29963;44.594;11.368;2023-02-27T03:33:34;7.63;;;2.53;;
44270;SDS011;29963;44.594;11.368;2023-02-27T03:36:18;11.27;;;3.13;;
44270;SDS011;29963;44.594;11.368;2023-02-27T03:47:24;8.43;;;2.60;;
44270;SDS011;29963;44.594;11.368;2023-02-27T03:49:50;8.85;;;3.65;;
44270;SDS011;29963;44.594;11.368;2023-02-27T03:52:17;15.00;;;3.25;;
44270;SDS011;29963;44.594;11.368;2023-02-27T03:54:47;8.15;;;3.42;;
44270;SDS011;29963;44.594;11.368;2023-02-27T03:57:20;10.70;;;3.35;;
44270;SDS011;29963;44.594;11.368;2023-02-27T03:59:46;6.38;;;3.42;;
44270;SDS011;29963;44.594;11.368;2023-02-27T04:02:13;4.63;;;3.03;;
44270;SDS011;29963;44.594;11.368;2023-02-27T04:04:40;12.70;;;3.17;;
44270;SDS011;29963;44.594;11.368;2023-02-27T04:12:56;10.50;;;4.03;;
44270;SDS011;29963;44.594;11.368;2023-02-27T04:24:11;5.60;;;3.50;;
44270;SDS011;29963;44.594;11.368;2023-02-27T04:26:54;8.18;;;3.38;;
44270;SDS011;29963;44.594;11.368;2023-02-27T04:29:38;10.07;;;3.50;;
44270;SDS011;29963;44.594;11.368;2023-02-27T04:32:22;6.40;;;3.10;;
44270;SDS011;29963;44.594;11.368;2023-02-27T04:40:33;10.85;;;3.70;;
44270;SDS011;29963;44.594;11.368;2023-02-27T04:43:05;16.73;;;4.32;;
44270;SDS011;29963;44.594;11.368;2023-02-27T04:45:33;6.68;;;3.35;;
44270;SDS011;29963;44.594;11.368;2023-02-27T04:48:06;10.15;;;3.33;;
44270;SDS011;29963;44.594;11.368;2023-02-27T04:51:01;9.07;;;3.25;;
44270;SDS011;29963;44.594;11.368;2023-02-27T04:53:29;6.97;;;3.67;;
44270;SDS011;29963;44.594;11.368;2023-02-27T04:56:01;6.78;;;3.17;;
44270;SDS011;29963;44.594;11.368;2023-02-27T04:58:35;5.53;;;3.38;;
44270;SDS011;29963;44.594;11.368;2023-02-27T05:01:10;7.25;;;2.85;;
44270;SDS011;29963;44.594;11.368;2023-02-27T05:03:42;7.20;;;2.85;;
44270;SDS011;29963;44.594;11.368;2023-02-27T05:06:11;9.55;;;3.50;;
44270;SDS011;29963;44.594;11.368;2023-02-27T05:13:48;4.65;;;3.22;;
44270;SDS011;29963;44.594;11.368;2023-02-27T05:16:35;8.50;;;3.25;;
44270;SDS011;29963;44.594;11.368;2023-02-27T05:19:05;7.82;;;3.10;;
44270;SDS011;29963;44.594;11.368;2023-02-27T05:21:41;10.10;;;3.10;;
44270;SDS011;29963;44.594;11.368;2023-02-27T05:27:15;10.18;;;4.00;;
44270;SDS011;29963;44.594;11.368;2023-02-27T05:35:14;12.55;;;3.05;;
44270;SDS011;29963;44.594;11.368;2023-02-27T05:37:50;12.15;;;3.78;;
44270;SDS011;29963;44.594;11.368;2023-02-27T05:40:25;11.70;;;3.40;;
44270;SDS011;29963;44.594;11.368;2023-02-27T05:43:19;8.73;;;3.78;;
44270;SDS011;29963;44.594;11.368;2023-02-27T05:45:49;10.00;;;2.90;;
44270;SDS011;29963;44.594;11.368;2023-02-27T05:48:21;15.35;;;3.20;;
44270;SDS011;29963;44.594;11.368;2023-02-27T05:50:50;10.45;;;3.55;;
44270;SDS011;29963;44.594;11.368;2023-02-27T05:53:18;7.03;;;3.25;;
44270;SDS011;29963;44.594;11.368;2023-02-27T05:55:46;8.10;;;3.60;;
44270;SDS011;29963;44.594;11.368;2023-02-27T05:58:17;13.65;;;4.20;;
44270;SDS011;29963;44.594;11.368;2023-02-27T06:03:16;13.05;;;3.95;;
44270;SDS011;29963;44.594;11.368;2023-02-27T06:05:42;9.02;;;3.53;;
44270;SDS011;29963;44.594;11.368;2023-02-27T06:08:09;7.53;;;3.60;;
44270;SDS011;29963;44.594;11.368;2023-02-27T06:10:35;5.45;;;3.25;;
44270;SDS011;29963;44.594;11.368;2023-02-27T06:13:02;10.95;;;5.38;;
44270;SDS011;29963;44.594;11.368;2023-02-27T06:15:28;8.98;;;3.72;;
44270;SDS011;29963;44.594;11.368;2023-02-27T06:17:56;8.77;;;3.35;;
44270;SDS011;29963;44.594;11.368;2023-02-27T06:20:22;7.95;;;3.33;;
44270;SDS011;29963;44.594;11.368;2023-02-27T06:22:47;11.88;;;3.50;;
44270;SDS011;29963;44.594;11.368;2023-02-27T06:25:13;20.20;;;4.22;;
44270;SDS011;29963;44.594;11.368;2023-02-27T06:27:39;9.32;;;3.70;;
44270;SDS011;29963;44.594;11.368;2023-02-27T06:30:04;9.68;;;3.55;;
44270;SDS011;29963;44.594;11.368;2023-02-27T06:32:31;7.90;;;3.75;;
44270;SDS011;29963;44.594;11.368;2023-02-27T06:34:57;9.43;;;3.65;;
44270;SDS011;29963;44.594;11.368;2023-02-27T06:37:22;5.85;;;3.25;;
44270;SDS011;29963;44.594;11.368;2023-02-27T06:39:48;14.23;;;3.90;;
44270;SDS011;29963;44.594;11.368;2023-02-27T06:42:14;7.45;;;4.38;;
44270;SDS011;29963;44.594;11.368;2023-02-27T06:44:40;8.20;;;3.60;;
44270;SDS011;29963;44.594;11.368;2023-02-27T06:47:06;10.70;;;4.00;;
44270;SDS011;29963;44.594;11.368;2023-02-27T06:49:31;8.32;;;4.50;;
44270;SDS011;29963;44.594;11.368;2023-02-27T06:51:57;6.93;;;4.20;;
44270;SDS011;29963;44.594;11.368;2023-02-27T06:54:22;9.57;;;4.72;;
44270;SDS011;29963;44.594;11.368;2023-02-27T06:56:48;9.95;;;4.85;;
44270;SDS011;29963;44.594;11.368;2023-02-27T06:59:15;11.68;;;6.07;;
44270;SDS011;29963;44.594;11.368;2023-02-27T07:01:41;13.05;;;3.92;;
44270;SDS011;29963;44.594;11.368;2023-02-27T07:04:07;8.35;;;4.32;;
44270;SDS011;29963;44.594;11.368;2023-02-27T07:06:37;7.53;;;3.50;;
44270;SDS011;29963;44.594;11.368;2023-02-27T07:09:03;5.43;;;3.47;;
44270;SDS011;29963;44.594;11.368;2023-02-27T07:11:29;11.55;;;3.53;;
44270;SDS011;29963;44.594;11.368;2023-02-27T07:13:54;11.35;;;3.28;;
44270;SDS011;29963;44.594;11.368;2023-02-27T07:16:20;13.80;;;4.80;;
44270;SDS011;29963;44.594;11.368;2023-02-27T07:18:46;8.98;;;5.05;;
44270;SDS011;29963;44.594;11.368;2023-02-27T07:21:11;8.07;;;4.25;;
44270;SDS011;29963;44.594;11.368;2023-02-27T07:23:39;7.25;;;4.22;;
44270;SDS011;29963;44.594;11.368;2023-02-27T07:26:05;8.82;;;4.13;;
44270;SDS011;29963;44.594;11.368;2023-02-27T07:28:30;10.30;;;3.42;;
44270;SDS011;29963;44.594;11.368;2023-02-27T07:30:56;8.23;;;3.47;;
44270;SDS011;29963;44.594;11.368;2023-02-27T07:33:22;4.00;;;3.33;;
44270;SDS011;29963;44.594;11.368;2023-02-27T07:35:48;11.02;;;3.30;;
44270;SDS011;29963;44.594;11.368;2023-02-27T07:38:14;6.20;;;3.55;;
44270;SDS011;29963;44.594;11.368;2023-02-27T07:40:39;10.73;;;3.47;;
44270;SDS011;29963;44.594;11.368;2023-02-27T07:43:05;6.63;;;3.88;;
44270;SDS011;29963;44.594;11.368;2023-02-27T07:45:31;7.30;;;3.70;;
44270;SDS011;29963;44.594;11.368;2023-02-27T07:47:57;11.85;;;3.78;;
44270;SDS011;29963;44.594;11.368;2023-02-27T07:50:22;7.18;;;3.42;;
44270;SDS011;29963;44.594;11.368;2023-02-27T07:52:48;8.30;;;3.55;;
44270;SDS011;29963;44.594;11.368;2023-02-27T07:55:15;11.30;;;3.78;;
44270;SDS011;29963;44.594;11.368;2023-02-27T07:57:41;8.50;;;3.50;;
44270;SDS011;29963;44.594;11.368;2023-02-27T08:00:09;8.10;;;3.33;;
44270;SDS011;29963;44.594;11.368;2023-02-27T08:02:35;9.65;;;3.13;;
44270;SDS011;29963;44.594;11.368;2023-02-27T08:05:01;11.05;;;4.35;;
44270;SDS011;29963;44.594;11.368;2023-02-27T08:07:26;10.70;;;3.63;;
44270;SDS011;29963;44.594;11.368;2023-02-27T08:09:52;8.07;;;2.67;;
44270;SDS011;29963;44.594;11.368;2023-02-27T08:12:18;8.00;;;3.38;;
44270;SDS011;29963;44.594;11.368;2023-02-27T08:14:43;4.20;;;3.42;;
44270;SDS011;29963;44.594;11.368;2023-02-27T08:17:09;6.03;;;3.05;;
44270;SDS011;29963;44.594;11.368;2023-02-27T08:19:35;4.55;;;2.80;;
44270;SDS011;29963;44.594;11.368;2023-02-27T08:22:01;3.58;;;2.97;;
44270;SDS011;29963;44.594;11.368;2023-02-27T08:24:27;5.65;;;3.63;;
44270;SDS011;29963;44.594;11.368;2023-02-27T08:26:53;6.22;;;3.10;;
44270;SDS011;29963;44.594;11.368;2023-02-27T08:29:19;13.18;;;3.20;;
44270;SDS011;29963;44.594;11.368;2023-02-27T08:31:44;9.02;;;2.83;;
44270;SDS011;29963;44.594;11.368;2023-02-27T08:34:10;5.30;;;2.90;;
44270;SDS011;29963;44.594;11.368;2023-02-27T08:36:37;3.28;;;2.67;;
44270;SDS011;29963;44.594;11.368;2023-02-27T08:39:04;5.80;;;3.83;;
44270;SDS011;29963;44.594;11.368;2023-02-27T08:41:30;5.53;;;3.35;;
44270;SDS011;29963;44.594;11.368;2023-02-27T08:43:55;5.57;;;2.88;;
44270;SDS011;29963;44.594;11.368;2023-02-27T08:46:24;6.38;;;3.55;;
44270;SDS011;29963;44.594;11.368;2023-02-27T08:48:50;7.82;;;3.50;;
44270;SDS011;29963;44.594;11.368;2023-02-27T08:51:15;6.72;;;2.72;;
44270;SDS011;29963;44.594;11.368;2023-02-27T08:53:41;4.38;;;3.10;;
44270;SDS011;29963;44.594;11.368;2023-02-27T08:56:06;7.95;;;3.55;;
44270;SDS011;29963;44.594;11.368;2023-02-27T08:58:32;9.15;;;4.60;;
44270;SDS011;29963;44.594;11.368;2023-02-27T09:00:59;9.10;;;3.35;;
44270;SDS011;29963;44.594;11.368;2023-02-27T09:03:28;9.75;;;3.83;;
44270;SDS011;29963;44.594;11.368;2023-02-27T09:05:55;8.20;;;3.67;;
44270;SDS011;29963;44.594;11.368;2023-02-27T09:08:21;3.75;;;3.38;;
44270;SDS011;29963;44.594;11.368;2023-02-27T09:10:47;12.32;;;3.90;;
44270;SDS011;29963;44.594;11.368;2023-02-27T09:13:13;6.03;;;3.65;;
44270;SDS011;29963;44.594;11.368;2023-02-27T09:15:39;6.65;;;3.47;;
44270;SDS011;29963;44.594;11.368;2023-02-27T09:18:04;8.75;;;4.30;;
44270;SDS011;29963;44.594;11.368;2023-02-27T09:20:31;5.95;;;4.18;;
44270;SDS011;29963;44.594;11.368;2023-02-27T09:22:59;8.70;;;3.63;;
44270;SDS011;29963;44.594;11.368;2023-02-27T09:25:26;8.25;;;3.60;;
44270;SDS011;29963;44.594;11.368;2023-02-27T09:27:52;5.55;;;3.80;;
44270;SDS011;29963;44.594;11.368;2023-02-27T09:30:21;4.53;;;3.03;;
44270;SDS011;29963;44.594;11.368;2023-02-27T09:32:47;3.50;;;3.20;;
44270;SDS011;29963;44.594;11.368;2023-02-27T09:35:13;4.88;;;3.63;;
44270;SDS011;29963;44.594;11.368;2023-02-27T09:37:40;7.50;;;3.67;;
44270;SDS011;29963;44.594;11.368;2023-02-27T09:40:06;5.68;;;3.25;;
44270;SDS011;29963;44.594;11.368;2023-02-27T09:42:39;6.75;;;3.15;;
44270;SDS011;29963;44.594;11.368;2023-02-27T09:45:11;6.38;;;3.75;;
44270;SDS011;29963;44.594;11.368;2023-02-27T09:47:49;9.43;;;4.93;;
44270;SDS011;29963;44.594;11.368;2023-02-27T09:50:26;5.50;;;3.65;;
44270;SDS011;29963;44.594;11.368;2023-02-27T09:53:35;4.78;;;3.97;;
44270;SDS011;29963;44.594;11.368;2023-02-27T09:56:07;13.13;;;3.50;;
44270;SDS011;29963;44.594;11.368;2023-02-27T09:58:42;8.02;;;3.72;;
44270;SDS011;29963;44.594;11.368;2023-02-27T10:04:04;8.30;;;3.58;;
44270;SDS011;29963;44.594;11.368;2023-02-27T10:06:40;6.25;;;4.38;;
44270;SDS011;29963;44.594;11.368;2023-02-27T10:09:16;11.02;;;4.88;;
44270;SDS011;29963;44.594;11.368;2023-02-27T10:12:02;8.43;;;5.30;;
44270;SDS011;29963;44.594;11.368;2023-02-27T10:14:59;8.75;;;3.70;;
44270;SDS011;29963;44.594;11.368;2023-02-27T10:17:35;5.45;;;4.18;;
44270;SDS011;29963;44.594;11.368;2023-02-27T10:20:07;3.30;;;3.00;;
44270;SDS011;29963;44.594;11.368;2023-02-27T10:22:42;7.47;;;3.60;;
44270;SDS011;29963;44.594;11.368;2023-02-27T10:25:11;4.38;;;3.15;;
44270;SDS011;29963;44.594;11.368;2023-02-27T10:27:42;3.65;;;3.35;;
44270;SDS011;29963;44.594;11.368;2023-02-27T10:30:23;10.73;;;6.60;;
44270;SDS011;29963;44.594;11.368;2023-02-27T10:33:37;8.55;;;3.95;;
44270;SDS011;29963;44.594;11.368;2023-02-27T10:35:49;6.18;;;4.20;;
44270;SDS011;29963;44.594;11.368;2023-02-27T10:40:50;5.90;;;3.80;;
44270;SDS011;29963;44.594;11.368;2023-02-27T10:43:18;5.15;;;3.20;;
44270;SDS011;29963;44.594;11.368;2023-02-27T10:45:45;9.05;;;6.78;;
44270;SDS011;29963;44.594;11.368;2023-02-27T10:48:11;6.55;;;4.72;;
44270;SDS011;29963;44.594;11.368;2023-02-27T10:50:39;8.02;;;5.55;;
44270;SDS011;29963;44.594;11.368;2023-02-27T10:53:15;4.75;;;3.78;;
44270;SDS011;29963;44.594;11.368;2023-02-27T10:55:43;9.57;;;6.78;;
44270;SDS011;29963;44.594;11.368;2023-02-27T10:58:31;7.43;;;4.40;;
44270;SDS011;29963;44.594;11.368;2023-02-27T11:01:02;8.60;;;4.18;;
44270;SDS011;29963;44.594;11.368;2023-02-27T11:03:34;9.45;;;3.92;;
44270;SDS011;29963;44.594;11.368;2023-02-27T11:11:48;11.70;;;9.05;;
44270;SDS011;29963;44.594;11.368;2023-02-27T11:16:50;7.43;;;5.38;;
44270;SDS011;29963;44.594;11.368;2023-02-27T11:19:34;14.70;;;7.43;;
44270;SDS011;29963;44.594;11.368;2023-02-27T11:22:04;8.05;;;5.10;;
44270;SDS011;29963;44.594;11.368;2023-02-27T11:24:44;7.47;;;4.95;;
44270;SDS011;29963;44.594;11.368;2023-02-27T11:29:57;5.55;;;4.68;;
44270;SDS011;29963;44.594;11.368;2023-02-27T11:32:49;8.35;;;4.35;;
44270;SDS011;29963;44.594;11.368;2023-02-27T11:37:54;8.90;;;4.50;;
44270;SDS011;29963;44.594;11.368;2023-02-27T11:40:25;8.93;;;5.85;;
44270;SDS011;29963;44.594;11.368;2023-02-27T11:42:56;7.88;;;5.32;;
44270;SDS011;29963;44.594;11.368;2023-02-27T11:45:28;6.00;;;4.05;;
44270;SDS011;29963;44.594;11.368;2023-02-27T11:56:21;7.05;;;3.95;;
44270;SDS011;29963;44.594;11.368;2023-02-27T11:59:01;5.85;;;4.95;;
44270;SDS011;29963;44.594;11.368;2023-02-27T12:01:37;10.77;;;5.50;;
44270;SDS011;29963;44.594;11.368;2023-02-27T12:04:13;7.47;;;4.28;;
44270;SDS011;29963;44.594;11.368;2023-02-27T12:06:51;9.85;;;5.03;;
44270;SDS011;29963;44.594;11.368;2023-02-27T12:09:33;8.20;;;4.05;;
44270;SDS011;29963;44.594;11.368;2023-02-27T12:12:04;10.23;;;4.85;;
44270;SDS011;29963;44.594;11.368;2023-02-27T12:20:22;4.43;;;4.03;;
44270;SDS011;29963;44.594;11.368;2023-02-27T12:22:52;7.10;;;4.60;;
44270;SDS011;29963;44.594;11.368;2023-02-27T12:27:48;4.55;;;3.83;;
44270;SDS011;29963;44.594;11.368;2023-02-27T12:32:51;6.97;;;4.78;;
44270;SDS011;29963;44.594;11.368;2023-02-27T12:35:28;8.23;;;4.57;;
44270;SDS011;29963;44.594;11.368;2023-02-27T12:37:56;5.70;;;4.35;;
44270;SDS011;29963;44.594;11.368;2023-02-27T12:40:25;12.13;;;4.90;;
44270;SDS011;29963;44.594;11.368;2023-02-27T12:45:57;7.65;;;4.57;;
44270;SDS011;29963;44.594;11.368;2023-02-27T12:48:36;11.85;;;4.93;;
44270;SDS011;29963;44.594;11.368;2023-02-27T13:02:27;5.25;;;4.55;;
44270;SDS011;29963;44.594;11.368;2023-02-27T13:11:04;6.72;;;4.80;;
44270;SDS011;29963;44.594;11.368;2023-02-27T13:13:54;7.88;;;4.65;;
44270;SDS011;29963;44.594;11.368;2023-02-27T13:18:56;9.13;;;4.72;;
44270;SDS011;29963;44.594;11.368;2023-02-27T13:21:39;5.40;;;4.30;;
44270;SDS011;29963;44.594;11.368;2023-02-27T13:29:17;8.98;;;5.30;;
44270;SDS011;29963;44.594;11.368;2023-02-27T13:37:09;12.13;;;5.53;;
44270;SDS011;29963;44.594;11.368;2023-02-27T13:39:36;12.05;;;5.90;;
44270;SDS011;29963;44.594;11.368;2023-02-27T13:47:37;6.30;;;4.95;;
44270;SDS011;29963;44.594;11.368;2023-02-27T13:52:41;7.45;;;5.03;;
44270;SDS011;29963;44.594;11.368;2023-02-27T13:55:24;4.88;;;4.30;;
44270;SDS011;29963;44.594;11.368;2023-02-27T13:58:01;10.40;;;5.50;;
44270;SDS011;29963;44.594;11.368;2023-02-27T14:00:29;11.25;;;6.38;;
44270;SDS011;29963;44.594;11.368;2023-02-27T14:02:58;7.45;;;5.13;;
44270;SDS011;29963;44.594;11.368;2023-02-27T14:05:45;10.98;;;5.30;;
44270;SDS011;29963;44.594;11.368;2023-02-27T14:10:50;6.53;;;5.03;;
44270;SDS011;29963;44.594;11.368;2023-02-27T14:19:02;7.07;;;5.30;;
44270;SDS011;29963;44.594;11.368;2023-02-27T14:24:24;8.75;;;4.93;;
44270;SDS011;29963;44.594;11.368;2023-02-27T14:26:55;12.07;;;6.35;;
44270;SDS011;29963;44.594;11.368;2023-02-27T14:29:22;12.25;;;5.60;;
44270;SDS011;29963;44.594;11.368;2023-02-27T14:31:54;14.18;;;7.25;;
44270;SDS011;29963;44.594;11.368;2023-02-27T14:34:23;10.13;;;5.72;;
44270;SDS011;29963;44.594;11.368;2023-02-27T14:36:50;8.52;;;5.88;;
44270;SDS011;29963;44.594;11.368;2023-02-27T14:39:36;8.63;;;5.55;;
44270;SDS011;29963;44.594;11.368;2023-02-27T14:44:53;6.35;;;4.97;;
44270;SDS011;29963;44.594;11.368;2023-02-27T14:47:24;10.90;;;5.50;;
44270;SDS011;29963;44.594;11.368;2023-02-27T14:49:56;8.98;;;5.53;;
44270;SDS011;29963;44.594;11.368;2023-02-27T14:52:23;9.40;;;5.80;;
44270;SDS011;29963;44.594;11.368;2023-02-27T14:57:54;8.88;;;5.65;;
44270;SDS011;29963;44.594;11.368;2023-02-27T15:02:58;7.68;;;5.22;;
44270;SDS011;29963;44.594;11.368;2023-02-27T15:05:27;9.85;;;4.55;;
44270;SDS011;29963;44.594;11.368;2023-02-27T15:07:55;9.10;;;5.20;;
44270;SDS011;29963;44.594;11.368;2023-02-27T15:10:22;7.43;;;4.68;;
44270;SDS011;29963;44.594;11.368;2023-02-27T15:12:54;11.18;;;5.63;;
44270;SDS011;29963;44.594;11.368;2023-02-27T15:15:22;5.82;;;4.40;;
44270;SDS011;29963;44.594;11.368;2023-02-27T15:17:49;10.95;;;5.45;;
44270;SDS011;29963;44.594;11.368;2023-02-27T15:23:00;14.65;;;6.10;;
44270;SDS011;29963;44.594;11.368;2023-02-27T15:25:44;11.18;;;5.32;;
44270;SDS011;29963;44.594;11.368;2023-02-27T15:28:23;8.73;;;6.40;;
44270;SDS011;29963;44.594;11.368;2023-02-27T15:30:57;16.55;;;6.13;;
44270;SDS011;29963;44.594;11.368;2023-02-27T15:33:28;13.40;;;6.47;;
44270;SDS011;29963;44.594;11.368;2023-02-27T15:35:56;9.05;;;5.18;;
44270;SDS011;29963;44.594;11.368;2023-02-27T15:38:30;6.97;;;5.93;;
44270;SDS011;29963;44.594;11.368;2023-02-27T15:40:58;8.60;;;5.65;;
44270;SDS011;29963;44.594;11.368;2023-02-27T15:43:26;10.70;;;5.32;;
44270;SDS011;29963;44.594;11.368;2023-02-27T15:45:53;8.60;;;6.20;;
44270;SDS011;29963;44.594;11.368;2023-02-27T15:48:19;11.93;;;6.68;;
44270;SDS011;29963;44.594;11.368;2023-02-27T15:50:53;10.02;;;6.13;;
44270;SDS011;29963;44.594;11.368;2023-02-27T15:53:23;9.05;;;6.35;;
44270;SDS011;29963;44.594;11.368;2023-02-27T15:55:54;13.18;;;6.50;;
44270;SDS011;29963;44.594;11.368;2023-02-27T15:58:36;9.10;;;6.10;;
44270;SDS011;29963;44.594;11.368;2023-02-27T16:01:09;7.45;;;5.70;;
44270;SDS011;29963;44.594;11.368;2023-02-27T16:03:44;11.02;;;6.05;;
44270;SDS011;29963;44.594;11.368;2023-02-27T16:08:44;9.00;;;5.30;;
44270;SDS011;29963;44.594;11.368;2023-02-27T16:11:18;12.30;;;6.72;;
44270;SDS011;29963;44.594;11.368;2023-02-27T16:13:51;12.57;;;7.00;;
44270;SDS011;29963;44.594;11.368;2023-02-27T16:16:28;8.18;;;6.03;;
44270;SDS011;29963;44.594;11.368;2023-02-27T16:19:00;8.25;;;5.65;;
44270;SDS011;29963;44.594;11.368;2023-02-27T16:21:49;13.32;;;6.03;;
44270;SDS011;29963;44.594;11.368;2023-02-27T16:24:38;11.93;;;5.53;;
44270;SDS011;29963;44.594;11.368;2023-02-27T16:27:04;14.10;;;6.57;;
44270;SDS011;29963;44.594;11.368;2023-02-27T16:32:00;12.15;;;6.28;;
44270;SDS011;29963;44.594;11.368;2023-02-27T16:34:37;10.23;;;6.90;;
44270;SDS011;29963;44.594;11.368;2023-02-27T16:37:05;12.18;;;6.53;;
44270;SDS011;29963;44.594;11.368;2023-02-27T16:39:31;11.27;;;6.68;;
44270;SDS011;29963;44.594;11.368;2023-02-27T16:42:00;11.98;;;5.65;;
44270;SDS011;29963;44.594;11.368;2023-02-27T16:44:26;13.15;;;6.30;;
44270;SDS011;29963;44.594;11.368;2023-02-27T16:46:53;9.70;;;6.20;;
44270;SDS011;29963;44.594;11.368;2023-02-27T16:51:50;12.73;;;8.50;;
44270;SDS011;29963;44.594;11.368;2023-02-27T16:54:19;14.63;;;8.27;;
44270;SDS011;29963;44.594;11.368;2023-02-27T16:56:46;13.70;;;7.82;;
44270;SDS011;29963;44.594;11.368;2023-02-27T17:01:47;16.90;;;9.93;;
44270;SDS011;29963;44.594;11.368;2023-02-27T17:04:13;16.08;;;11.68;;
44270;SDS011;29963;44.594;11.368;2023-02-27T17:06:39;18.48;;;12.60;;
44270;SDS011;29963;44.594;11.368;2023-02-27T17:09:04;22.20;;;12.70;;
44270;SDS011;29963;44.594;11.368;2023-02-27T17:11:30;22.65;;;14.23;;
44270;SDS011;29963;44.594;11.368;2023-02-27T17:13:55;19.30;;;12.77;;
44270;SDS011;29963;44.594;11.368;2023-02-27T17:16:21;22.75;;;13.43;;
44270;SDS011;29963;44.594;11.368;2023-02-27T17:18:46;19.67;;;11.98;;
44270;SDS011;29963;44.594;11.368;2023-02-27T17:21:12;17.60;;;11.63;;
44270;SDS011;29963;44.594;11.368;2023-02-27T17:23:38;19.38;;;10.77;;
44270;SDS011;29963;44.594;11.368;2023-02-27T17:26:03;21.10;;;11.40;;
44270;SDS011;29963;44.594;11.368;2023-02-27T17:28:29;19.20;;;10.70;;
44270;SDS011;29963;44.594;11.368;2023-02-27T17:30:55;19.52;;;12.63;;
44270;SDS011;29963;44.594;11.368;2023-02-27T17:33:20;24.65;;;14.52;;
44270;SDS011;29963;44.594;11.368;2023-02-27T17:35:46;14.25;;;10.77;;
44270;SDS011;29963;44.594;11.368;2023-02-27T17:38:12;14.18;;;8.57;;
44270;SDS011;29963;44.594;11.368;2023-02-27T17:40:38;15.75;;;8.60;;
44270;SDS011;29963;44.594;11.368;2023-02-27T17:43:04;10.88;;;7.88;;
44270;SDS011;29963;44.594;11.368;2023-02-27T17:45:30;25.25;;;8.52;;
44270;SDS011;29963;44.594;11.368;2023-02-27T17:47:55;12.60;;;7.63;;
44270;SDS011;29963;44.594;11.368;2023-02-27T17:50:21;18.02;;;9.50;;
44270;SDS011;29963;44.594;11.368;2023-02-27T17:52:47;26.05;;;14.27;;
44270;SDS011;29963;44.594;11.368;2023-02-27T17:55:12;26.58;;;14.90;;
44270;SDS011;29963;44.594;11.368;2023-02-27T17:57:40;22.70;;;13.63;;
44270;SDS011;29963;44.594;11.368;2023-02-27T18:00:06;19.65;;;13.13;;